ADDS METAR Data INFO
IDs: Format: Raw Decoded Include TAF

Data at: 2330 UTC 19 Oct 2017

KU68 192315Z AUTO 15005KT 10SM CLR 22/ A2973 RMK AO2
KU68 192255Z AUTO 14012KT 10SM CLR 23/ A2974 RMK AO2
KU68 192235Z AUTO 15011G16KT 10SM CLR 23/ A2975 RMK AO2
KU68 192215Z AUTO 14011G15KT 10SM CLR 23/ A2976 RMK AO2
KU68 192155Z AUTO 13010KT 10SM CLR 23/ A2976 RMK AO2
KU68 192135Z AUTO 14008KT 10SM CLR 21/ A2977 RMK AO2
KU68 192115Z AUTO 13011KT 10SM CLR 21/ A2977 RMK AO2
KU68 192055Z AUTO 14011KT 10SM CLR 21/ A2978 RMK AO2
KU68 192035Z AUTO 14012G16KT 10SM CLR 23/ A2979 RMK AO2
KU68 192015Z AUTO 15011KT 10SM CLR 22/ A2980 RMK AO2
KU68 191955Z AUTO 14008KT 10SM CLR 21/ A2981 RMK AO2
KU68 191935Z AUTO 15011KT 10SM CLR 22/ A2982 RMK AO2
KU68 191915Z AUTO 14011KT 10SM CLR 22/ A2983 RMK AO2
KU68 191855Z AUTO 13014G20KT 10SM CLR 21/ A2985 RMK AO2
KU68 191835Z AUTO 11009KT 10SM CLR 20/ A2986 RMK AO2
KU68 191815Z AUTO 08006KT 10SM CLR 18/ A2987 RMK AO2
KU68 191755Z AUTO 09007KT 10SM CLR 18/ A2988 RMK AO2
KU68 191735Z AUTO 08007KT 10SM CLR 17/ A2988 RMK AO2
KU68 191715Z AUTO 10008KT 10SM CLR 17/ A2989 RMK AO2
KU68 191655Z AUTO 12008KT 10SM CLR 16/ A2990 RMK AO2
KU68 191635Z AUTO 10009G14KT 10SM CLR 15/ A2990 RMK AO2
KU68 191615Z AUTO 08009KT 10SM CLR 13/ A2991 RMK AO2
KU68 191555Z AUTO 08007KT 10SM CLR 12/ A2991 RMK AO2
KU68 191535Z AUTO 08006KT 10SM CLR 12/ A2992 RMK AO2
KU68 191515Z AUTO 04005KT 10SM CLR 10/ A2992 RMK AO2
KU68 191455Z AUTO 00000KT 10SM CLR 08/ A2993 RMK AO2
KU68 191435Z AUTO 00000KT 10SM CLR 06/M45 A2992 RMK AO2
KU68 191415Z AUTO 00000KT 10SM CLR 05/ A2991 RMK AO2
KU68 191355Z AUTO 00000KT 10SM CLR 06/ A2991 RMK AO2
KU68 191335Z AUTO 07006KT 10SM CLR 06/ A2991 RMK AO2
KU68 191315Z AUTO 00000KT 10SM CLR 05/ A2991 RMK AO2
KU68 191255Z AUTO 06007KT 10SM CLR 05/ A2992 RMK AO2
KU68 191235Z AUTO 07007KT 10SM CLR 05/ A2992 RMK AO2
KU68 191215Z AUTO 07004KT 10SM CLR 08/ A2992 RMK AO2
KU68 191155Z AUTO 00000KT 10SM CLR 06/ A2992 RMK AO2
KU68 191135Z AUTO 00000KT 10SM CLR 07/ A2993 RMK AO2
KU68 191115Z AUTO 00000KT 10SM CLR 09/ A2992 RMK AO2
KU68 191055Z AUTO 00000KT 10SM CLR 09/ A2992 RMK AO2
KU68 191035Z AUTO 00000KT 10SM CLR 08/ A2991 RMK AO2
KU68 191015Z AUTO 05005KT 10SM CLR 08/ A2991 RMK AO2
KU68 190955Z AUTO 08004KT 10SM CLR 10/ A2992 RMK AO2
KU68 190935Z AUTO 00000KT 10SM CLR 09/ A2993 RMK AO2
KU68 190915Z AUTO 12006KT 10SM CLR 10/ A2993 RMK AO2
KU68 190855Z AUTO 11005KT 10SM CLR 09/ A2993 RMK AO2
KU68 190835Z AUTO 06005KT 10SM CLR 07/ A2993 RMK AO2
KU68 190815Z AUTO 05004KT 10SM CLR 09/ A2993 RMK AO2
KU68 190755Z AUTO 10005KT 10SM CLR 10/ A2993 RMK AO2
KU68 190735Z AUTO 06006KT 10SM CLR 08/ A2993 RMK AO2
KU68 190715Z AUTO 05005KT 10SM CLR 08/ A2993 RMK AO2
KU68 190655Z AUTO 04005KT 10SM CLR 08/ A2994 RMK AO2
KU68 190635Z AUTO 06004KT 10SM CLR 10/ A2994 RMK AO2
KU68 190615Z AUTO 03004KT 10SM CLR 10/ A2994 RMK AO2
KU68 190555Z AUTO 05005KT 10SM CLR 09/ A2995 RMK AO2
KU68 190535Z AUTO 09003KT 10SM CLR 09/ A2995 RMK AO2
KU68 190515Z AUTO 00000KT 10SM CLR 11/ A2994 RMK AO2
KU68 190455Z AUTO 00000KT 10SM CLR 11/ A2995 RMK AO2
KU68 190435Z AUTO 00000KT 10SM CLR 10/ A2995 RMK AO2
KU68 190415Z AUTO 03004KT 10SM CLR 10/ A2995 RMK AO2
KU68 190355Z AUTO 08003KT 10SM CLR 10/ A2995 RMK AO2
KU68 190335Z AUTO 31003KT 10SM CLR 09/ A2994 RMK AO2
KU68 190315Z AUTO 00000KT 10SM CLR 11/ A2995 RMK AO2
KU68 190255Z AUTO 00000KT 10SM CLR 12/ A2995 RMK AO2
KU68 190235Z AUTO 00000KT 10SM CLR 12/ A2995 RMK AO2
KU68 190215Z AUTO 36003KT 10SM CLR 13/ A2995 RMK AO2
KU68 190155Z AUTO 24006KT 10SM CLR 14/ A2996 RMK AO2
KU68 190135Z AUTO 13003KT 10SM CLR 15/ A2995 RMK AO2
KU68 190115Z AUTO 14003KT 7SM CLR 14/ A2995 RMK AO2
KU68 190055Z AUTO 15004KT 10SM CLR 16/ A2994 RMK AO2
KU68 190035Z AUTO 16007KT 10SM CLR 17/ A2994 RMK AO2
KU68 190015Z AUTO 17006KT 10SM CLR 17/ A2994 RMK AO2
KU68 182355Z AUTO 14005KT 10SM CLR 17/ A2994 RMK AO2
KU68 182335Z AUTO 17008KT 10SM CLR 18/ A2994 RMK AO2
KU68 182315Z AUTO 17009KT 10SM CLR 19/ A2994 RMK AO2
KU68 182255Z AUTO 15010KT 10SM SCT120 21/ A2995 RMK AO2
KU68 182235Z AUTO 14011G14KT 10SM CLR 21/ A2995 RMK AO2
KU68 182215Z AUTO 15012KT 10SM CLR 22/ A2994 RMK AO2
KU68 182155Z AUTO 16012KT 10SM CLR 21/ A2994 RMK AO2
KU68 182135Z AUTO 16009KT 10SM CLR 21/ A2995 RMK AO2
KU68 182115Z AUTO 16012G16KT 10SM CLR 21/ A2995 RMK AO2
KU68 182055Z AUTO 19014G18KT 10SM CLR 22/ A2995 RMK AO2
KU68 182035Z AUTO 17013KT 10SM CLR 22/ A2996 RMK AO2
KU68 182015Z AUTO 16013G16KT 10SM CLR 22/ A2997 RMK AO2
KU68 181955Z AUTO 16011G17KT 10SM CLR 22/ A2998 RMK AO2
KU68 181935Z AUTO 19007KT 10SM CLR 21/ A2999 RMK AO2
KU68 181915Z AUTO 13011KT 10SM CLR 21/ A3000 RMK AO2
KU68 181855Z AUTO 11009KT 10SM CLR 20/ A3001 RMK AO2
KU68 181835Z AUTO 09009KT 10SM CLR 18/ A3003 RMK AO2
KU68 181815Z AUTO 08008KT 10SM CLR 18/ A3003 RMK AO2
KU68 181755Z AUTO 09006KT 10SM CLR 17/ A3004 RMK AO2
KU68 181735Z AUTO 10006KT 10SM CLR 16/ A3006 RMK AO2
KU68 181715Z AUTO 12006KT 10SM CLR 16/ A3006 RMK AO2
KU68 181655Z AUTO 12005KT 10SM CLR 15/ A3006 RMK AO2
KU68 181635Z AUTO 11005KT 10SM CLR 15/ A3006 RMK AO2
KU68 181615Z AUTO 10005KT 10SM CLR 14/ A3006 RMK AO2
KU68 181555Z AUTO 00000KT 10SM CLR 13/ A3006 RMK AO2
KU68 181535Z AUTO 07004KT 10SM CLR 12/ A3005 RMK AO2
KU68 181515Z AUTO 09004KT 10SM CLR 11/M38 A3005 RMK AO2
KU68 181455Z AUTO 06006KT 10SM CLR 10/M39 A3004 RMK AO2
KU68 181435Z AUTO 02003KT 10SM CLR 09/ A3003 RMK AO2
KU68 181415Z AUTO 00000KT 10SM CLR 08/M45 A3003 RMK AO2
KU68 181355Z AUTO 00000KT 10SM CLR 04/M45 A3002 RMK AO2
KU68 181335Z AUTO 00000KT 10SM CLR 07/ A3002 RMK AO2
KU68 181315Z AUTO 00000KT 10SM CLR 10/M45 A3001 RMK AO2
KU68 181255Z AUTO 00000KT 10SM CLR 05/M43 A3000 RMK AO2
KU68 181235Z AUTO 35006KT 10SM CLR 05/M44 A2999 RMK AO2
KU68 181215Z AUTO 22003KT 10SM CLR 06/M45 A2999 RMK AO2
KU68 181155Z AUTO 20004KT 10SM CLR 05/ A2998 RMK AO2
KU68 181135Z AUTO 00000KT 10SM CLR 10/ A2998 RMK AO2